sensor_id;sensor_type;location;lat;lon;timestamp;pressure;altitude;pressure_sealevel;temperature
64904;BMP280;51401;48.882;12.598;2023-08-20T00:02:25;83819.38;;;21.60
64904;BMP280;51401;48.882;12.598;2023-08-20T00:04:50;83717.28;;;21.56
64904;BMP280;51401;48.882;12.598;2023-08-20T00:07:16;83607.91;;;21.53
64904;BMP280;51401;48.882;12.598;2023-08-20T00:09:43;83523.59;;;21.48
64904;BMP280;51401;48.882;12.598;2023-08-20T00:12:09;83453.66;;;21.45
64904;BMP280;51401;48.882;12.598;2023-08-20T00:15:02;83386.78;;;21.44
64904;BMP280;51401;48.882;12.598;2023-08-20T00:19:57;83458.75;;;21.47
64904;BMP280;51401;48.882;12.598;2023-08-20T00:22:24;83580.28;;;21.45
64904;BMP280;51401;48.882;12.598;2023-08-20T00:24:53;83601.16;;;21.47
64904;BMP280;51401;48.882;12.598;2023-08-20T00:27:19;83632.66;;;21.47
64904;BMP280;51401;48.882;12.598;2023-08-20T00:29:44;83647.94;;;21.45
64904;BMP280;51401;48.882;12.598;2023-08-20T00:32:10;83653.81;;;21.45
64904;BMP280;51401;48.882;12.598;2023-08-20T00:34:35;83704.50;;;21.44
64904;BMP280;51401;48.882;12.598;2023-08-20T00:37:01;83744.03;;;21.42
64904;BMP280;51401;48.882;12.598;2023-08-20T00:39:28;83707.25;;;21.42
64904;BMP280;51401;48.882;12.598;2023-08-20T00:41:53;83679.63;;;21.43
64904;BMP280;51401;48.882;12.598;2023-08-20T00:44:18;83686.59;;;21.38
64904;BMP280;51401;48.882;12.598;2023-08-20T00:46:44;83794.41;;;21.36
64904;BMP280;51401;48.882;12.598;2023-08-20T00:49:09;83875.31;;;21.33
64904;BMP280;51401;48.882;12.598;2023-08-20T00:51:35;83933.69;;;21.26
64904;BMP280;51401;48.882;12.598;2023-08-20T00:54:01;83894.78;;;21.20
64904;BMP280;51401;48.882;12.598;2023-08-20T00:56:28;83754.41;;;21.19
64904;BMP280;51401;48.882;12.598;2023-08-20T00:58:54;83727.72;;;21.16
64904;BMP280;51401;48.882;12.598;2023-08-20T01:01:21;83671.22;;;21.17
64904;BMP280;51401;48.882;12.598;2023-08-20T01:03:46;83650.06;;;21.11
64904;BMP280;51401;48.882;12.598;2023-08-20T01:09:18;83619.22;;;21.03
64904;BMP280;51401;48.882;12.598;2023-08-20T01:11:51;83733.13;;;21.06
64904;BMP280;51401;48.882;12.598;2023-08-20T01:14:17;84058.25;;;21.10
64904;BMP280;51401;48.882;12.598;2023-08-20T01:16:43;84461.38;;;21.07
64904;BMP280;51401;48.882;12.598;2023-08-20T01:19:13;84682.75;;;21.04
64904;BMP280;51401;48.882;12.598;2023-08-20T01:21:50;84738.16;;;21.00
64904;BMP280;51401;48.882;12.598;2023-08-20T01:24:41;84742.25;;;21.07
64904;BMP280;51401;48.882;12.598;2023-08-20T01:30:08;84806.13;;;21.14
64904;BMP280;51401;48.882;12.598;2023-08-20T01:32:35;84838.25;;;21.14
64904;BMP280;51401;48.882;12.598;2023-08-20T01:35:02;84858.78;;;21.12
64904;BMP280;51401;48.882;12.598;2023-08-20T01:37:28;84837.16;;;21.11
64904;BMP280;51401;48.882;12.598;2023-08-20T01:39:53;84777.75;;;21.16
64904;BMP280;51401;48.882;12.598;2023-08-20T01:42:18;84702.09;;;21.19
64904;BMP280;51401;48.882;12.598;2023-08-20T01:44:44;84674.34;;;21.22
64904;BMP280;51401;48.882;12.598;2023-08-20T01:47:09;84661.84;;;21.22
64904;BMP280;51401;48.882;12.598;2023-08-20T01:49:34;84690.09;;;21.22
64904;BMP280;51401;48.882;12.598;2023-08-20T01:52:00;84753.50;;;21.26
64904;BMP280;51401;48.882;12.598;2023-08-20T01:54:25;84790.25;;;21.26
64904;BMP280;51401;48.882;12.598;2023-08-20T01:56:51;84759.88;;;21.29
64904;BMP280;51401;48.882;12.598;2023-08-20T01:59:16;84845.91;;;21.29
64904;BMP280;51401;48.882;12.598;2023-08-20T02:01:43;84913.19;;;21.24
64904;BMP280;51401;48.882;12.598;2023-08-20T02:04:08;84924.31;;;21.24
64904;BMP280;51401;48.882;12.598;2023-08-20T02:06:33;85101.41;;;21.27
64904;BMP280;51401;48.882;12.598;2023-08-20T02:08:59;85328.31;;;21.44
64904;BMP280;51401;48.882;12.598;2023-08-20T02:11:24;85595.75;;;21.42
64904;BMP280;51401;48.882;12.598;2023-08-20T02:13:49;85670.69;;;21.41
64904;BMP280;51401;48.882;12.598;2023-08-20T02:16:15;85694.66;;;21.35
64904;BMP280;51401;48.882;12.598;2023-08-20T02:18:41;85579.97;;;21.30
64904;BMP280;51401;48.882;12.598;2023-08-20T02:21:06;85370.56;;;21.28
64904;BMP280;51401;48.882;12.598;2023-08-20T02:23:32;85279.56;;;21.35
64904;BMP280;51401;48.882;12.598;2023-08-20T02:25:58;85452.19;;;21.36
64904;BMP280;51401;48.882;12.598;2023-08-20T02:28:23;85555.84;;;21.39
64904;BMP280;51401;48.882;12.598;2023-08-20T02:30:48;85695.97;;;21.48
64904;BMP280;51401;48.882;12.598;2023-08-20T02:33:14;85812.84;;;21.49
64904;BMP280;51401;48.882;12.598;2023-08-20T02:35:39;85770.97;;;21.45
64904;BMP280;51401;48.882;12.598;2023-08-20T02:38:05;85681.94;;;21.39
64904;BMP280;51401;48.882;12.598;2023-08-20T02:40:31;85616.78;;;21.42
64904;BMP280;51401;48.882;12.598;2023-08-20T02:42:57;85720.78;;;21.51
64904;BMP280;51401;48.882;12.598;2023-08-20T02:45:22;85867.22;;;21.53
64904;BMP280;51401;48.882;12.598;2023-08-20T02:47:48;86004.69;;;21.49
64904;BMP280;51401;48.882;12.598;2023-08-20T02:50:13;86043.56;;;21.47
64904;BMP280;51401;48.882;12.598;2023-08-20T02:52:38;86035.13;;;21.44
64904;BMP280;51401;48.882;12.598;2023-08-20T02:55:04;85965.44;;;21.45
64904;BMP280;51401;48.882;12.598;2023-08-20T02:57:32;85937.28;;;21.44
64904;BMP280;51401;48.882;12.598;2023-08-20T02:59:57;85810.69;;;21.39
64904;BMP280;51401;48.882;12.598;2023-08-20T03:02:23;85799.56;;;21.39
64904;BMP280;51401;48.882;12.598;2023-08-20T03:04:48;85866.06;;;21.35
64904;BMP280;51401;48.882;12.598;2023-08-20T03:07:13;85851.09;;;21.32
64904;BMP280;51401;48.882;12.598;2023-08-20T03:09:38;85802.00;;;21.29
64904;BMP280;51401;48.882;12.598;2023-08-20T03:12:04;85612.22;;;21.28
64904;BMP280;51401;48.882;12.598;2023-08-20T03:14:29;85440.44;;;21.23
64904;BMP280;51401;48.882;12.598;2023-08-20T03:16:54;85360.28;;;21.24
64904;BMP280;51401;48.882;12.598;2023-08-20T03:19:20;85360.28;;;21.24
64904;BMP280;51401;48.882;12.598;2023-08-20T03:21:45;85402.31;;;21.24
64904;BMP280;51401;48.882;12.598;2023-08-20T03:24:10;85393.06;;;21.25
64904;BMP280;51401;48.882;12.598;2023-08-20T03:26:36;85265.72;;;21.24
64904;BMP280;51401;48.882;12.598;2023-08-20T03:29:01;85190.81;;;21.25
64904;BMP280;51401;48.882;12.598;2023-08-20T03:31:28;85175.69;;;21.26
64904;BMP280;51401;48.882;12.598;2023-08-20T03:33:53;85190.81;;;21.25
64904;BMP280;51401;48.882;12.598;2023-08-20T03:36:18;85224.88;;;21.27
64904;BMP280;51401;48.882;12.598;2023-08-20T03:38:43;85222.22;;;21.27
64904;BMP280;51401;48.882;12.598;2023-08-20T03:41:09;85186.09;;;21.28
64904;BMP280;51401;48.882;12.598;2023-08-20T03:43:34;85069.03;;;21.30
64904;BMP280;51401;48.882;12.598;2023-08-20T03:46:01;84954.09;;;21.31
64904;BMP280;51401;48.882;12.598;2023-08-20T03:48:26;84915.19;;;21.33
64904;BMP280;51401;48.882;12.598;2023-08-20T03:50:51;85005.13;;;21.34
64904;BMP280;51401;48.882;12.598;2023-08-20T03:53:17;85127.22;;;21.35
64904;BMP280;51401;48.882;12.598;2023-08-20T03:55:47;85217.16;;;21.35
64904;BMP280;51401;48.882;12.598;2023-08-20T03:58:13;85277.56;;;21.35
64904;BMP280;51401;48.882;12.598;2023-08-20T04:00:38;85309.81;;;21.34
64904;BMP280;51401;48.882;12.598;2023-08-20T04:03:04;85261.19;;;21.35
64904;BMP280;51401;48.882;12.598;2023-08-20T04:05:29;85258.56;;;21.35
64904;BMP280;51401;48.882;12.598;2023-08-20T04:07:54;85171.44;;;21.43
64904;BMP280;51401;48.882;12.598;2023-08-20T04:10:20;85231.94;;;21.41
64904;BMP280;51401;48.882;12.598;2023-08-20T04:12:45;85248.97;;;21.42
64904;BMP280;51401;48.882;12.598;2023-08-20T04:15:10;85315.38;;;21.40
64904;BMP280;51401;48.882;12.598;2023-08-20T04:17:35;85388.31;;;21.40
64904;BMP280;51401;48.882;12.598;2023-08-20T04:20:01;85354.16;;;21.40
64904;BMP280;51401;48.882;12.598;2023-08-20T04:22:26;85183.00;;;21.35
64904;BMP280;51401;48.882;12.598;2023-08-20T04:24:53;85118.56;;;21.36
64904;BMP280;51401;48.882;12.598;2023-08-20T04:27:19;85138.97;;;21.36
64904;BMP280;51401;48.882;12.598;2023-08-20T04:29:44;85160.22;;;21.32
64904;BMP280;51401;48.882;12.598;2023-08-20T04:32:09;84889.44;;;21.26
64904;BMP280;51401;48.882;12.598;2023-08-20T04:34:34;84832.91;;;21.27
64904;BMP280;51401;48.882;12.598;2023-08-20T04:36:59;84854.81;;;21.23
64904;BMP280;51401;48.882;12.598;2023-08-20T04:39:25;84913.19;;;21.24
64904;BMP280;51401;48.882;12.598;2023-08-20T04:41:50;84886.56;;;21.19
64904;BMP280;51401;48.882;12.598;2023-08-20T04:44:15;84767.50;;;21.12
64904;BMP280;51401;48.882;12.598;2023-08-20T04:46:42;84713.50;;;21.15
64904;BMP280;51401;48.882;12.598;2023-08-20T04:49:07;84738.13;;;21.20
64904;BMP280;51401;48.882;12.598;2023-08-20T04:51:32;84729.00;;;21.19
64904;BMP280;51401;48.882;12.598;2023-08-20T04:53:58;84742.13;;;21.19
64904;BMP280;51401;48.882;12.598;2023-08-20T04:56:23;84789.41;;;21.19
64904;BMP280;51401;48.882;12.598;2023-08-20T04:58:48;84870.66;;;21.21
64904;BMP280;51401;48.882;12.598;2023-08-20T05:01:14;84874.66;;;21.30
64904;BMP280;51401;48.882;12.598;2023-08-20T05:03:39;85014.63;;;21.29
64904;BMP280;51401;48.882;12.598;2023-08-20T05:06:04;85061.91;;;21.29
64904;BMP280;51401;48.882;12.598;2023-08-20T05:08:30;85149.03;;;21.44
64904;BMP280;51401;48.882;12.598;2023-08-20T05:10:55;85421.59;;;21.68
64904;BMP280;51401;48.882;12.598;2023-08-20T05:13:20;85752.66;;;21.96
64904;BMP280;51401;48.882;12.598;2023-08-20T05:15:46;86119.47;;;22.13
64904;BMP280;51401;48.882;12.598;2023-08-20T05:18:11;86702.72;;;22.19
64904;BMP280;51401;48.882;12.598;2023-08-20T05:20:37;87043.06;;;22.13
64904;BMP280;51401;48.882;12.598;2023-08-20T05:23:02;87032.72;;;22.08
64904;BMP280;51401;48.882;12.598;2023-08-20T05:25:29;87016.53;;;21.99
64904;BMP280;51401;48.882;12.598;2023-08-20T05:27:54;86837.81;;;21.93
64904;BMP280;51401;48.882;12.598;2023-08-20T05:30:19;86742.44;;;21.93
64904;BMP280;51401;48.882;12.598;2023-08-20T05:32:44;86631.03;;;22.00
64904;BMP280;51401;48.882;12.598;2023-08-20T05:35:10;86573.31;;;21.96
64904;BMP280;51401;48.882;12.598;2023-08-20T05:37:35;86566.81;;;22.11
64904;BMP280;51401;48.882;12.598;2023-08-20T05:40:00;86595.47;;;22.19
64904;BMP280;51401;48.882;12.598;2023-08-20T05:42:26;86635.00;;;22.52
64904;BMP280;51401;48.882;12.598;2023-08-20T05:44:51;86819.34;;;22.88
64904;BMP280;51401;48.882;12.598;2023-08-20T05:47:16;87303.69;;;23.26
64904;BMP280;51401;48.882;12.598;2023-08-20T05:49:41;87627.47;;;23.47
64904;BMP280;51401;48.882;12.598;2023-08-20T05:52:07;88041.28;;;23.67
64904;BMP280;51401;48.882;12.598;2023-08-20T05:54:32;88396.84;;;23.76
64904;BMP280;51401;48.882;12.598;2023-08-20T05:56:58;88531.25;;;23.92
64904;BMP280;51401;48.882;12.598;2023-08-20T05:59:24;88797.81;;;24.08
64904;BMP280;51401;48.882;12.598;2023-08-20T06:01:49;88915.59;;;23.83
64904;BMP280;51401;48.882;12.598;2023-08-20T06:04:14;88916.97;;;23.70
64904;BMP280;51401;48.882;12.598;2023-08-20T06:06:40;88802.03;;;23.85
64904;BMP280;51401;48.882;12.598;2023-08-20T06:09:05;88786.81;;;23.89
64904;BMP280;51401;48.882;12.598;2023-08-20T06:11:31;88797.31;;;23.95
64904;BMP280;51401;48.882;12.598;2023-08-20T06:13:56;88772.53;;;24.30
64904;BMP280;51401;48.882;12.598;2023-08-20T06:16:21;89199.03;;;24.86
64904;BMP280;51401;48.882;12.598;2023-08-20T06:18:46;89674.59;;;25.25
64904;BMP280;51401;48.882;12.598;2023-08-20T06:21:12;90000.91;;;25.19
64904;BMP280;51401;48.882;12.598;2023-08-20T06:23:38;89993.19;;;25.72
64904;BMP280;51401;48.882;12.598;2023-08-20T06:26:03;90239.53;;;25.61
64904;BMP280;51401;48.882;12.598;2023-08-20T06:28:28;90239.66;;;25.78
64904;BMP280;51401;48.882;12.598;2023-08-20T06:30:54;90317.78;;;25.71
64904;BMP280;51401;48.882;12.598;2023-08-20T06:33:19;90350.84;;;25.63
64904;BMP280;51401;48.882;12.598;2023-08-20T06:35:44;90177.56;;;26.20
64904;BMP280;51401;48.882;12.598;2023-08-20T06:38:09;90337.13;;;25.89
64904;BMP280;51401;48.882;12.598;2023-08-20T06:40:35;90061.44;;;25.95
64904;BMP280;51401;48.882;12.598;2023-08-20T06:43:00;90130.88;;;25.53
64904;BMP280;51401;48.882;12.598;2023-08-20T06:45:25;90198.66;;;25.99
64904;BMP280;51401;48.882;12.598;2023-08-20T06:47:50;90417.59;;;26.23
64904;BMP280;51401;48.882;12.598;2023-08-20T06:50:16;90482.59;;;26.26
64904;BMP280;51401;48.882;12.598;2023-08-20T06:52:42;90482.66;;;26.32
64904;BMP280;51401;48.882;12.598;2023-08-20T06:55:07;90549.69;;;26.35
64904;BMP280;51401;48.882;12.598;2023-08-20T06:57:33;90550.91;;;26.24
64904;BMP280;51401;48.882;12.598;2023-08-20T06:59:58;90582.78;;;26.28
64904;BMP280;51401;48.882;12.598;2023-08-20T07:02:24;90686.16;;;26.82
64904;BMP280;51401;48.882;12.598;2023-08-20T07:04:49;90751.28;;;26.91
64904;BMP280;51401;48.882;12.598;2023-08-20T07:07:14;90849.81;;;27.14
64904;BMP280;51401;48.882;12.598;2023-08-20T07:09:41;90984.16;;;27.27
64904;BMP280;51401;48.882;12.598;2023-08-20T07:12:06;90898.59;;;26.84
64904;BMP280;51401;48.882;12.598;2023-08-20T07:14:32;90844.06;;;27.36
64904;BMP280;51401;48.882;12.598;2023-08-20T07:16:57;91038.31;;;27.53
64904;BMP280;51401;48.882;12.598;2023-08-20T07:19:22;91125.88;;;27.92
64904;BMP280;51401;48.882;12.598;2023-08-20T07:21:48;91233.63;;;27.91
64904;BMP280;51401;48.882;12.598;2023-08-20T07:24:13;91401.22;;;27.89
64904;BMP280;51401;48.882;12.598;2023-08-20T07:26:38;91252.56;;;28.14
64904;BMP280;51401;48.882;12.598;2023-08-20T07:29:04;91347.78;;;27.75
64904;BMP280;51401;48.882;12.598;2023-08-20T07:31:32;91379.13;;;28.23
64904;BMP280;51401;48.882;12.598;2023-08-20T07:34:00;91364.25;;;28.09
64904;BMP280;51401;48.882;12.598;2023-08-20T07:36:26;91417.81;;;28.30
64904;BMP280;51401;48.882;12.598;2023-08-20T07:38:53;91362.41;;;28.65
64904;BMP280;51401;48.882;12.598;2023-08-20T07:41:19;91731.22;;;28.26
64904;BMP280;51401;48.882;12.598;2023-08-20T07:43:45;91726.91;;;28.42
64904;BMP280;51401;48.882;12.598;2023-08-20T07:46:11;91663.88;;;28.93
64904;BMP280;51401;48.882;12.598;2023-08-20T07:48:37;92174.00;;;29.07
64904;BMP280;51401;48.882;12.598;2023-08-20T07:51:03;93033.56;;;28.96
64904;BMP280;51401;48.882;12.598;2023-08-20T07:53:29;94103.13;;;29.58
64904;BMP280;51401;48.882;12.598;2023-08-20T07:55:55;94032.94;;;29.69
64904;BMP280;51401;48.882;12.598;2023-08-20T07:58:20;94129.69;;;30.07
64904;BMP280;51401;48.882;12.598;2023-08-20T08:00:45;95758.50;;;30.36
64904;BMP280;51401;48.882;12.598;2023-08-20T08:03:10;96267.75;;;29.92
64904;BMP280;51401;48.882;12.598;2023-08-20T08:05:36;95666.03;;;29.81
64904;BMP280;51401;48.882;12.598;2023-08-20T08:08:02;96195.75;;;30.42
64904;BMP280;51401;48.882;12.598;2023-08-20T08:10:27;96850.06;;;30.78
64904;BMP280;51401;48.882;12.598;2023-08-20T08:12:53;96998.69;;;31.06
64904;BMP280;51401;48.882;12.598;2023-08-20T08:15:18;97266.00;;;30.73
64904;BMP280;51401;48.882;12.598;2023-08-20T08:17:44;97212.31;;;30.78
64904;BMP280;51401;48.882;12.598;2023-08-20T08:20:09;97436.63;;;30.85
64904;BMP280;51401;48.882;12.598;2023-08-20T08:22:34;97495.38;;;31.16
64904;BMP280;51401;48.882;12.598;2023-08-20T08:24:59;97496.91;;;31.44
64904;BMP280;51401;48.882;12.598;2023-08-20T08:27:25;97486.81;;;30.85
64904;BMP280;51401;48.882;12.598;2023-08-20T08:29:50;97606.50;;;31.02
64904;BMP280;51401;48.882;12.598;2023-08-20T08:32:15;97733.69;;;31.40
64904;BMP280;51401;48.882;12.598;2023-08-20T08:34:41;97810.66;;;32.03
64904;BMP280;51401;48.882;12.598;2023-08-20T08:37:06;97862.50;;;31.85
64904;BMP280;51401;48.882;12.598;2023-08-20T08:39:32;97886.47;;;31.58
64904;BMP280;51401;48.882;12.598;2023-08-20T08:42:01;97867.34;;;31.99
64904;BMP280;51401;48.882;12.598;2023-08-20T08:44:34;97906.53;;;32.15
64904;BMP280;51401;48.882;12.598;2023-08-20T08:47:03;97859.09;;;31.46
64904;BMP280;51401;48.882;12.598;2023-08-20T08:49:33;97915.78;;;32.39
64904;BMP280;51401;48.882;12.598;2023-08-20T08:51:58;97912.94;;;32.57
64904;BMP280;51401;48.882;12.598;2023-08-20T08:54:24;97996.88;;;32.83
64904;BMP280;51401;48.882;12.598;2023-08-20T08:56:50;98016.78;;;33.01
64904;BMP280;51401;48.882;12.598;2023-08-20T08:59:15;98070.78;;;33.23
64904;BMP280;51401;48.882;12.598;2023-08-20T09:01:41;98047.56;;;33.12
64904;BMP280;51401;48.882;12.598;2023-08-20T09:04:06;98055.31;;;33.16
64904;BMP280;51401;48.882;12.598;2023-08-20T09:06:52;98076.16;;;33.43
64904;BMP280;51401;48.882;12.598;2023-08-20T09:09:18;98091.19;;;32.73
64904;BMP280;51401;48.882;12.598;2023-08-20T09:11:44;98107.72;;;32.64
64904;BMP280;51401;48.882;12.598;2023-08-20T09:14:32;98092.69;;;32.94
64904;BMP280;51401;48.882;12.598;2023-08-20T09:17:01;98095.31;;;32.61
64904;BMP280;51401;48.882;12.598;2023-08-20T09:19:34;98104.25;;;33.34
64904;BMP280;51401;48.882;12.598;2023-08-20T09:22:00;98156.59;;;33.01
64904;BMP280;51401;48.882;12.598;2023-08-20T09:24:52;98178.41;;;32.97
64904;BMP280;51401;48.882;12.598;2023-08-20T09:27:18;98177.91;;;32.99
64904;BMP280;51401;48.882;12.598;2023-08-20T09:32:24;98195.34;;;34.03
64904;BMP280;51401;48.882;12.598;2023-08-20T09:34:50;98206.69;;;33.89
64904;BMP280;51401;48.882;12.598;2023-08-20T09:37:18;98204.84;;;34.24
64904;BMP280;51401;48.882;12.598;2023-08-20T09:39:44;98207.66;;;34.12
64904;BMP280;51401;48.882;12.598;2023-08-20T09:42:10;98189.75;;;34.21
64904;BMP280;51401;48.882;12.598;2023-08-20T09:44:38;98197.56;;;34.12
64904;BMP280;51401;48.882;12.598;2023-08-20T09:47:14;98211.63;;;33.45
64904;BMP280;51401;48.882;12.598;2023-08-20T09:49:42;98217.94;;;34.48
64904;BMP280;51401;48.882;12.598;2023-08-20T09:52:10;98220.22;;;34.64
64904;BMP280;51401;48.882;12.598;2023-08-20T09:55:04;98251.53;;;35.02
64904;BMP280;51401;48.882;12.598;2023-08-20T09:57:37;98225.84;;;34.46
64904;BMP280;51401;48.882;12.598;2023-08-20T10:00:04;98213.13;;;33.86
64904;BMP280;51401;48.882;12.598;2023-08-20T10:02:37;98218.25;;;34.37
64904;BMP280;51401;48.882;12.598;2023-08-20T10:05:05;98236.31;;;34.29
64904;BMP280;51401;48.882;12.598;2023-08-20T10:07:31;98226.34;;;34.37
64904;BMP280;51401;48.882;12.598;2023-08-20T10:10:01;98226.72;;;34.68
64904;BMP280;51401;48.882;12.598;2023-08-20T10:12:27;98231.19;;;35.01
64904;BMP280;51401;48.882;12.598;2023-08-20T10:14:53;98229.50;;;34.56
64904;BMP280;51401;48.882;12.598;2023-08-20T10:17:19;98227.50;;;35.18
64904;BMP280;51401;48.882;12.598;2023-08-20T10:19:46;98242.84;;;35.23
64904;BMP280;51401;48.882;12.598;2023-08-20T10:22:12;98243.34;;;34.87
64904;BMP280;51401;48.882;12.598;2023-08-20T10:24:44;98248.28;;;34.68
64904;BMP280;51401;48.882;12.598;2023-08-20T10:27:11;98233.91;;;34.73
64904;BMP280;51401;48.882;12.598;2023-08-20T10:29:38;98226.44;;;34.79
64904;BMP280;51401;48.882;12.598;2023-08-20T10:32:12;98237.16;;;34.24
64904;BMP280;51401;48.882;12.598;2023-08-20T10:34:39;98237.31;;;34.66
64904;BMP280;51401;48.882;12.598;2023-08-20T10:37:12;98231.28;;;35.15
64904;BMP280;51401;48.882;12.598;2023-08-20T10:39:40;98236.59;;;35.43
64904;BMP280;51401;48.882;12.598;2023-08-20T10:45:07;98250.34;;;35.74
64904;BMP280;51401;48.882;12.598;2023-08-20T10:50:08;98237.03;;;36.27
64904;BMP280;51401;48.882;12.598;2023-08-20T10:52:40;98237.59;;;36.11
64904;BMP280;51401;48.882;12.598;2023-08-20T10:55:07;98242.75;;;35.50
64904;BMP280;51401;48.882;12.598;2023-08-20T10:57:36;98251.84;;;36.04
64904;BMP280;51401;48.882;12.598;2023-08-20T11:00:05;98238.66;;;36.23
64904;BMP280;51401;48.882;12.598;2023-08-20T11:02:35;98251.28;;;36.28
64904;BMP280;51401;48.882;12.598;2023-08-20T11:05:02;98254.38;;;36.24
64904;BMP280;51401;48.882;12.598;2023-08-20T11:07:28;98264.59;;;36.55
64904;BMP280;51401;48.882;12.598;2023-08-20T11:09:53;98246.97;;;36.39
64904;BMP280;51401;48.882;12.598;2023-08-20T11:12:20;98251.81;;;36.56
64904;BMP280;51401;48.882;12.598;2023-08-20T11:14:46;98251.78;;;36.63
64904;BMP280;51401;48.882;12.598;2023-08-20T11:17:11;98247.47;;;36.45
64904;BMP280;51401;48.882;12.598;2023-08-20T11:19:37;98241.91;;;35.99
64904;BMP280;51401;48.882;12.598;2023-08-20T11:22:02;98243.00;;;36.18
64904;BMP280;51401;48.882;12.598;2023-08-20T11:24:28;98244.44;;;35.97
64904;BMP280;51401;48.882;12.598;2023-08-20T11:26:54;98249.31;;;35.20
64904;BMP280;51401;48.882;12.598;2023-08-20T11:29:20;98239.66;;;35.47
64904;BMP280;51401;48.882;12.598;2023-08-20T11:31:46;98242.28;;;35.89
64904;BMP280;51401;48.882;12.598;2023-08-20T11:34:11;98245.88;;;36.28
64904;BMP280;51401;48.882;12.598;2023-08-20T11:36:38;98235.97;;;36.38
64904;BMP280;51401;48.882;12.598;2023-08-20T11:39:04;98243.41;;;36.90
64904;BMP280;51401;48.882;12.598;2023-08-20T11:41:30;98250.50;;;36.64
64904;BMP280;51401;48.882;12.598;2023-08-20T11:43:55;98267.31;;;36.18
64904;BMP280;51401;48.882;12.598;2023-08-20T11:46:22;98263.53;;;35.99
64904;BMP280;51401;48.882;12.598;2023-08-20T11:49:08;98254.50;;;35.90
64904;BMP280;51401;48.882;12.598;2023-08-20T11:51:49;98248.41;;;35.96
64904;BMP280;51401;48.882;12.598;2023-08-20T11:54:18;98251.97;;;35.92
64904;BMP280;51401;48.882;12.598;2023-08-20T11:57:02;98251.28;;;35.98
64904;BMP280;51401;48.882;12.598;2023-08-20T11:59:30;98269.66;;;36.37
64904;BMP280;51401;48.882;12.598;2023-08-20T12:01:57;98267.28;;;36.62
64904;BMP280;51401;48.882;12.598;2023-08-20T12:04:25;98258.13;;;36.29
64904;BMP280;51401;48.882;12.598;2023-08-20T12:07:13;98253.81;;;36.26
64904;BMP280;51401;48.882;12.598;2023-08-20T12:09:38;98245.44;;;36.75
64904;BMP280;51401;48.882;12.598;2023-08-20T12:12:05;98244.16;;;37.22
64904;BMP280;51401;48.882;12.598;2023-08-20T12:14:31;98250.72;;;36.44
64904;BMP280;51401;48.882;12.598;2023-08-20T12:16:56;98253.28;;;35.91
64904;BMP280;51401;48.882;12.598;2023-08-20T12:19:22;98247.81;;;35.76
64904;BMP280;51401;48.882;12.598;2023-08-20T12:21:48;98242.28;;;36.11
64904;BMP280;51401;48.882;12.598;2023-08-20T12:24:14;98239.59;;;36.18
64904;BMP280;51401;48.882;12.598;2023-08-20T12:26:40;98250.22;;;36.16
64904;BMP280;51401;48.882;12.598;2023-08-20T12:29:06;98243.81;;;37.26
64904;BMP280;51401;48.882;12.598;2023-08-20T12:31:32;98249.78;;;36.56
64904;BMP280;51401;48.882;12.598;2023-08-20T12:33:57;98256.09;;;36.73
64904;BMP280;51401;48.882;12.598;2023-08-20T12:36:23;98249.44;;;36.67
64904;BMP280;51401;48.882;12.598;2023-08-20T12:38:48;98241.84;;;36.58
64904;BMP280;51401;48.882;12.598;2023-08-20T12:41:14;98236.03;;;36.91
64904;BMP280;51401;48.882;12.598;2023-08-20T12:43:40;98229.22;;;37.21
64904;BMP280;51401;48.882;12.598;2023-08-20T12:46:05;98233.84;;;37.28
64904;BMP280;51401;48.882;12.598;2023-08-20T12:48:30;98227.22;;;37.22
64904;BMP280;51401;48.882;12.598;2023-08-20T12:50:56;98221.88;;;37.07
64904;BMP280;51401;48.882;12.598;2023-08-20T12:53:21;98232.78;;;37.55
64904;BMP280;51401;48.882;12.598;2023-08-20T12:55:47;98214.66;;;37.41
64904;BMP280;51401;48.882;12.598;2023-08-20T12:58:12;98212.47;;;37.70
64904;BMP280;51401;48.882;12.598;2023-08-20T13:00:38;98214.75;;;37.81
64904;BMP280;51401;48.882;12.598;2023-08-20T13:03:04;98223.97;;;37.78
64904;BMP280;51401;48.882;12.598;2023-08-20T13:05:30;98219.75;;;37.61
64904;BMP280;51401;48.882;12.598;2023-08-20T13:07:55;98226.28;;;37.58
64904;BMP280;51401;48.882;12.598;2023-08-20T13:10:21;98220.97;;;37.91
64904;BMP280;51401;48.882;12.598;2023-08-20T13:12:53;98224.50;;;38.01
64904;BMP280;51401;48.882;12.598;2023-08-20T13:15:20;98217.97;;;37.80
64904;BMP280;51401;48.882;12.598;2023-08-20T13:17:48;98211.97;;;37.41
64904;BMP280;51401;48.882;12.598;2023-08-20T13:20:14;98218.97;;;37.68
64904;BMP280;51401;48.882;12.598;2023-08-20T13:22:40;98215.50;;;37.50
64904;BMP280;51401;48.882;12.598;2023-08-20T13:25:05;98206.53;;;36.56
64904;BMP280;51401;48.882;12.598;2023-08-20T13:27:31;98203.97;;;36.73
64904;BMP280;51401;48.882;12.598;2023-08-20T13:29:57;98206.44;;;37.55
64904;BMP280;51401;48.882;12.598;2023-08-20T13:32:23;98203.50;;;37.61
64904;BMP280;51401;48.882;12.598;2023-08-20T13:34:51;98205.47;;;37.84
64904;BMP280;51401;48.882;12.598;2023-08-20T13:37:18;98191.22;;;37.84
64904;BMP280;51401;48.882;12.598;2023-08-20T13:39:43;98198.94;;;38.28
64904;BMP280;51401;48.882;12.598;2023-08-20T13:42:09;98200.75;;;37.92
64904;BMP280;51401;48.882;12.598;2023-08-20T13:44:34;98194.78;;;38.43
64904;BMP280;51401;48.882;12.598;2023-08-20T13:47:00;98201.25;;;38.14
64904;BMP280;51401;48.882;12.598;2023-08-20T13:49:25;98197.66;;;37.71
64904;BMP280;51401;48.882;12.598;2023-08-20T13:51:51;98201.56;;;38.52
64904;BMP280;51401;48.882;12.598;2023-08-20T13:54:16;98194.38;;;38.30
64904;BMP280;51401;48.882;12.598;2023-08-20T13:56:41;98193.28;;;38.16
64904;BMP280;51401;48.882;12.598;2023-08-20T13:59:11;98206.22;;;37.61
64904;BMP280;51401;48.882;12.598;2023-08-20T14:01:37;98190.19;;;37.55
64904;BMP280;51401;48.882;12.598;2023-08-20T14:04:03;98194.00;;;37.76
64904;BMP280;51401;48.882;12.598;2023-08-20T14:06:29;98190.31;;;37.41
64904;BMP280;51401;48.882;12.598;2023-08-20T14:08:54;98185.47;;;37.96
64904;BMP280;51401;48.882;12.598;2023-08-20T14:11:19;98189.81;;;37.99